createdAt,value
2023-03-08T00:40:06.966Z,1.20
2023-03-08T01:10:37.958Z,1.20
2023-03-08T01:35:34.263Z,1.00
2023-03-08T02:16:42.269Z,0.70
2023-03-08T02:47:06.144Z,1.10
2023-03-08T03:12:31.929Z,1.10
2023-03-08T03:37:31.870Z,1.20
2023-03-08T04:02:53.805Z,1.30
2023-03-08T04:23:16.078Z,1.30
2023-03-08T05:03:27.209Z,1.30
2023-03-08T05:28:34.514Z,1.20
2023-03-08T05:54:19.192Z,1.00
2023-03-08T06:25:00.829Z,1.10
2023-03-08T06:45:00.219Z,1.40
2023-03-08T07:15:03.337Z,1.90
2023-03-08T07:35:49.555Z,2.10
2023-03-08T08:11:26.297Z,2.70
2023-03-08T08:46:34.285Z,3.20
2023-03-08T09:02:15.152Z,3.30
2023-03-08T09:42:24.170Z,3.50
2023-03-08T10:03:05.332Z,3.60
2023-03-08T10:23:05.218Z,3.00
2023-03-08T11:29:01.288Z,4.50
2023-03-08T11:54:36.567Z,3.90
2023-03-08T12:14:57.348Z,4.10
2023-03-08T12:40:07.404Z,3.90
2023-03-08T13:36:03.059Z,4.90
2023-03-08T14:01:15.959Z,5.60
2023-03-08T14:26:33.773Z,5.20
2023-03-08T15:02:20.615Z,5.00
2023-03-08T15:32:54.568Z,4.50
2023-03-08T15:37:14.101Z,4.40
2023-03-08T15:58:12.163Z,4.20
2023-03-08T16:23:36.264Z,3.80
2023-03-08T16:43:51.532Z,3.60
2023-03-08T18:50:28.496Z,2.10
2023-03-08T19:15:48.296Z,1.60
2023-03-08T19:35:48.800Z,1.40
2023-03-08T20:01:41.590Z,1.30
2023-03-08T20:42:07.385Z,1.10
2023-03-08T21:12:39.260Z,1.00
2023-03-08T21:42:27.630Z,0.90
2023-03-08T22:28:03.981Z,0.80
2023-03-08T22:53:56.885Z,0.70
2023-03-08T23:24:31.165Z,0.80
2023-03-08T23:54:13.938Z,0.90
